createdAt,value
2023-05-12T00:00:26.721Z,39.91
2023-05-12T00:01:28.078Z,39.88
2023-05-12T00:02:27.341Z,39.92
2023-05-12T00:03:27.775Z,39.89
2023-05-12T00:04:27.068Z,39.94
2023-05-12T00:05:27.686Z,39.96
2023-05-12T00:06:27.700Z,39.95
2023-05-12T00:07:26.705Z,39.86
2023-05-12T00:08:26.714Z,39.85
2023-05-12T00:09:26.707Z,39.80
2023-05-12T00:10:27.723Z,39.85
2023-05-12T00:11:26.717Z,39.88
2023-05-12T00:12:26.714Z,39.91
2023-05-12T00:13:27.772Z,39.90
2023-05-12T00:14:26.728Z,39.88
2023-05-12T00:15:26.717Z,39.91
2023-05-12T00:16:26.869Z,39.88
2023-05-12T00:17:27.826Z,39.83
2023-05-12T00:18:27.755Z,39.85
2023-05-12T00:19:26.747Z,39.89
2023-05-12T00:20:27.733Z,39.88
2023-05-12T00:21:27.772Z,39.89
2023-05-12T00:22:27.741Z,39.91
2023-05-12T00:23:26.752Z,39.75
2023-05-12T00:24:26.786Z,39.79
2023-05-12T00:25:27.773Z,39.83
2023-05-12T00:26:26.811Z,39.82
2023-05-12T00:27:26.806Z,39.82
2023-05-12T00:28:27.800Z,39.86
2023-05-12T00:29:26.805Z,39.92
2023-05-12T00:30:27.802Z,39.95
2023-05-12T00:31:27.854Z,39.94
2023-05-12T00:32:27.934Z,39.89
2023-05-12T00:33:26.819Z,39.96
2023-05-12T00:34:27.815Z,39.95
2023-05-12T00:35:26.817Z,39.91
2023-05-12T00:36:27.854Z,39.81
2023-05-12T00:37:27.824Z,39.86
2023-05-12T00:38:26.819Z,39.85
2023-05-12T00:39:27.841Z,39.87
2023-05-12T00:40:27.912Z,39.93
2023-05-12T00:41:27.842Z,39.90
2023-05-12T00:42:26.862Z,39.85
2023-05-12T00:43:26.866Z,39.88
2023-05-12T00:44:27.860Z,39.85
2023-05-12T00:45:26.902Z,39.88
2023-05-12T00:46:26.905Z,39.92
2023-05-12T00:47:26.934Z,39.83
2023-05-12T00:48:26.911Z,39.93
2023-05-12T00:49:26.891Z,39.85
2023-05-12T00:50:27.916Z,39.96
2023-05-12T00:51:26.894Z,39.99
2023-05-12T00:52:27.905Z,40.01
2023-05-12T00:53:37.583Z,39.97
2023-05-12T00:54:27.968Z,39.95
2023-05-12T00:55:26.889Z,39.96
2023-05-12T00:56:26.941Z,39.97
2023-05-12T00:57:27.927Z,39.97
2023-05-12T00:58:27.863Z,39.91
2023-05-12T00:59:26.866Z,39.91
2023-05-12T01:00:26.856Z,39.96
2023-05-12T01:01:27.921Z,40.00
2023-05-12T01:02:27.992Z,40.00
2023-05-12T01:03:27.942Z,40.00
2023-05-12T01:04:26.948Z,39.98
2023-05-12T01:05:27.805Z,39.91
2023-05-12T01:06:26.813Z,39.95
2023-05-12T01:07:26.800Z,40.02
2023-05-12T01:08:26.784Z,40.03
2023-05-12T01:09:26.801Z,40.05
2023-05-12T01:10:26.786Z,39.97
2023-05-12T01:11:27.798Z,40.01
2023-05-12T01:12:27.767Z,39.99
2023-05-12T01:13:27.773Z,39.97
2023-05-12T01:14:26.752Z,39.94
2023-05-12T01:15:27.818Z,39.99
2023-05-12T01:16:27.741Z,40.02
2023-05-12T01:17:27.851Z,40.01
2023-05-12T01:18:26.921Z,39.97
2023-05-12T01:19:27.723Z,39.95
2023-05-12T01:20:26.754Z,39.99
2023-05-12T01:21:27.706Z,39.99
2023-05-12T01:22:27.711Z,39.97
2023-05-12T01:23:27.708Z,39.96
2023-05-12T01:24:26.690Z,39.98
2023-05-12T01:25:26.677Z,40.04
2023-05-12T01:26:27.683Z,40.00
2023-05-12T01:27:26.677Z,40.04
2023-05-12T01:28:26.666Z,40.07
2023-05-12T01:29:26.645Z,40.08
2023-05-12T01:30:26.638Z,40.12
2023-05-12T01:31:26.692Z,40.09
2023-05-12T01:32:26.639Z,40.06
2023-05-12T01:33:26.636Z,40.05
2023-05-12T01:34:26.610Z,40.07
2023-05-12T01:35:27.602Z,40.01
2023-05-12T01:36:26.617Z,40.02
2023-05-12T01:37:27.571Z,40.03
2023-05-12T01:38:27.600Z,40.00
2023-05-12T01:39:26.593Z,40.04
2023-05-12T01:40:27.574Z,40.03
2023-05-12T01:41:26.549Z,40.04
2023-05-12T01:42:27.536Z,40.01
2023-05-12T01:43:27.529Z,40.01
2023-05-12T01:44:26.534Z,40.04
2023-05-12T01:45:26.526Z,40.06
2023-05-12T01:46:27.580Z,40.09
2023-05-12T01:47:27.547Z,40.10
2023-05-12T01:48:27.490Z,40.06
2023-05-12T01:49:26.507Z,40.06
2023-05-12T01:50:27.495Z,40.05
2023-05-12T01:51:27.502Z,40.00
2023-05-12T01:52:27.503Z,40.05
2023-05-12T01:53:27.482Z,40.03
2023-05-12T01:54:26.485Z,40.10
2023-05-12T01:55:27.453Z,40.08
2023-05-12T01:56:26.456Z,40.04
2023-05-12T01:57:26.441Z,40.06
2023-05-12T01:58:27.422Z,40.02
2023-05-12T01:59:27.492Z,40.07
2023-05-12T02:00:27.430Z,40.08
2023-05-12T02:01:27.417Z,40.07
2023-05-12T02:02:26.506Z,40.08
2023-05-12T02:03:26.443Z,40.08
2023-05-12T02:04:27.386Z,40.01
2023-05-12T02:05:27.375Z,40.06
2023-05-12T02:06:26.454Z,40.05
2023-05-12T02:07:26.362Z,40.11
2023-05-12T02:08:26.400Z,40.09
2023-05-12T02:09:27.470Z,40.03
2023-05-12T02:10:27.674Z,40.05
2023-05-12T02:11:27.819Z,40.07
2023-05-12T02:12:26.952Z,40.08
2023-05-12T02:13:28.529Z,40.09
2023-05-12T02:14:27.343Z,40.09
2023-05-12T02:15:26.596Z,40.08
2023-05-12T02:16:27.582Z,40.13
2023-05-12T02:17:27.991Z,40.15
2023-05-12T02:18:26.340Z,40.09
2023-05-12T02:19:26.286Z,40.10
2023-05-12T02:20:27.281Z,40.09
2023-05-12T02:21:26.271Z,40.13
2023-05-12T02:22:27.274Z,40.12
2023-05-12T02:23:27.284Z,40.10
2023-05-12T02:24:27.311Z,40.12
2023-05-12T02:25:27.231Z,40.11
2023-05-12T02:26:27.225Z,40.06
2023-05-12T02:27:26.228Z,40.08
2023-05-12T02:28:26.212Z,40.08
2023-05-12T02:29:27.235Z,40.10
2023-05-12T02:30:27.213Z,40.12
2023-05-12T02:31:27.218Z,40.10
2023-05-12T02:32:27.199Z,40.11
2023-05-12T02:33:26.186Z,40.12
2023-05-12T02:34:27.185Z,40.13
2023-05-12T02:35:27.239Z,40.15
2023-05-12T02:36:27.188Z,40.11
2023-05-12T02:37:26.177Z,40.14
2023-05-12T02:38:27.192Z,40.17
2023-05-12T02:39:26.173Z,40.12
2023-05-12T02:40:26.203Z,40.15
2023-05-12T02:41:27.184Z,40.14
2023-05-12T02:42:26.182Z,40.19
2023-05-12T02:43:27.178Z,40.15
2023-05-12T02:44:26.189Z,40.14
2023-05-12T02:45:27.157Z,40.18
2023-05-12T02:46:27.203Z,40.19
2023-05-12T02:47:26.173Z,40.18
2023-05-12T02:48:26.185Z,40.22
2023-05-12T02:49:26.185Z,40.24
2023-05-12T02:50:27.163Z,40.19
2023-05-12T02:51:26.161Z,40.21
2023-05-12T02:52:26.156Z,40.22
2023-05-12T02:53:27.187Z,40.21
2023-05-12T02:54:27.166Z,40.23
2023-05-12T02:55:27.168Z,40.22
2023-05-12T02:56:27.203Z,40.22
2023-05-12T02:57:27.181Z,40.24
2023-05-12T02:58:27.156Z,40.20
2023-05-12T02:59:26.162Z,40.22
2023-05-12T03:00:26.169Z,40.22
2023-05-12T03:01:26.176Z,40.23
2023-05-12T03:02:27.269Z,40.21
2023-05-12T03:03:27.269Z,40.20
2023-05-12T03:04:27.169Z,40.15
2023-05-12T03:05:27.165Z,40.14
2023-05-12T03:06:27.141Z,40.18
2023-05-12T03:07:26.170Z,40.16
2023-05-12T03:08:27.130Z,40.15
2023-05-12T03:09:26.156Z,40.16
2023-05-12T03:10:27.132Z,40.17
2023-05-12T03:11:26.152Z,40.17
2023-05-12T03:12:26.159Z,40.18
2023-05-12T03:13:27.145Z,40.11
2023-05-12T03:14:26.139Z,40.18
2023-05-12T03:15:27.170Z,40.19
2023-05-12T03:16:27.165Z,40.17
2023-05-12T03:17:27.227Z,40.22
2023-05-12T03:18:26.130Z,40.19
2023-05-12T03:19:26.141Z,40.20
2023-05-12T03:20:26.124Z,40.19
2023-05-12T03:21:27.105Z,40.19
2023-05-12T03:22:27.117Z,40.20
2023-05-12T03:23:26.130Z,40.21
2023-05-12T03:24:26.108Z,40.26
2023-05-12T03:25:27.111Z,40.25
2023-05-12T03:26:26.147Z,40.24
2023-05-12T03:27:27.115Z,40.21
2023-05-12T03:28:26.147Z,40.22
2023-05-12T03:29:27.151Z,40.20
2023-05-12T03:30:26.112Z,40.21
2023-05-12T03:31:27.223Z,40.26
2023-05-12T03:32:28.751Z,40.21
2023-05-12T03:33:27.116Z,40.24
2023-05-12T03:34:26.123Z,40.27
2023-05-12T03:35:26.099Z,40.26
2023-05-12T03:36:27.117Z,40.27
2023-05-12T03:37:26.064Z,40.23
2023-05-12T03:38:26.058Z,40.24
2023-05-12T03:39:27.068Z,40.23
2023-05-12T03:40:26.101Z,40.23
2023-05-12T03:41:26.079Z,40.22
2023-05-12T03:42:26.031Z,40.25
2023-05-12T03:43:27.030Z,40.27
2023-05-12T03:44:26.050Z,40.27
2023-05-12T03:45:27.042Z,40.29
2023-05-12T03:46:27.117Z,40.31
2023-05-12T03:47:29.023Z,40.26
2023-05-12T03:48:27.057Z,40.28
2023-05-12T03:49:25.992Z,40.23
2023-05-12T03:50:26.990Z,40.26
2023-05-12T03:51:27.051Z,40.26
2023-05-12T03:52:26.979Z,40.25
2023-05-12T03:53:26.989Z,40.25
2023-05-12T03:54:26.964Z,40.31
2023-05-12T03:55:25.963Z,40.29
2023-05-12T03:56:26.932Z,40.31
2023-05-12T03:57:26.967Z,40.32
2023-05-12T03:58:25.957Z,40.31
2023-05-12T03:59:26.912Z,40.26
2023-05-12T04:00:26.963Z,40.22
2023-05-12T04:01:26.901Z,40.27
2023-05-12T04:02:26.084Z,40.27
2023-05-12T04:03:26.956Z,40.21
2023-05-12T04:04:25.883Z,40.17
2023-05-12T04:05:25.870Z,40.21
2023-05-12T04:06:26.860Z,40.20
2023-05-12T04:07:26.867Z,40.25
2023-05-12T04:08:25.850Z,40.25
2023-05-12T04:09:26.864Z,40.23
2023-05-12T04:10:26.272Z,40.27
2023-05-12T04:11:26.837Z,40.21
2023-05-12T04:12:26.828Z,40.20
2023-05-12T04:13:25.807Z,40.20
2023-05-12T04:14:39.105Z,40.16
2023-05-12T04:15:26.892Z,40.21
2023-05-12T04:16:26.840Z,40.21
2023-05-12T04:17:25.866Z,40.20
2023-05-12T04:18:25.964Z,40.23
2023-05-12T04:19:26.751Z,40.22
2023-05-12T04:20:25.772Z,40.21
2023-05-12T04:21:25.766Z,40.15
2023-05-12T04:22:26.789Z,40.19
2023-05-12T04:23:25.756Z,40.20
2023-05-12T04:24:26.784Z,40.26
2023-05-12T04:25:26.727Z,40.21
2023-05-12T04:26:25.725Z,40.16
2023-05-12T04:27:26.720Z,40.18
2023-05-12T04:28:26.724Z,40.18
2023-05-12T04:29:26.712Z,40.20
2023-05-12T04:30:25.702Z,40.14
2023-05-12T04:31:26.717Z,40.19
2023-05-12T04:32:26.734Z,40.15
2023-05-12T04:33:25.684Z,40.21
2023-05-12T04:34:26.682Z,40.20
2023-05-12T04:35:26.660Z,40.14
2023-05-12T04:36:26.664Z,40.15
2023-05-12T04:37:26.653Z,40.12
2023-05-12T04:38:25.657Z,40.13
2023-05-12T04:39:26.621Z,40.16
2023-05-12T04:40:25.605Z,40.16
2023-05-12T04:41:25.597Z,40.19
2023-05-12T04:42:25.608Z,40.14
2023-05-12T04:44:25.607Z,40.14
2023-05-12T04:45:25.608Z,40.11
2023-05-12T04:46:26.595Z,40.13
2023-05-12T04:47:26.587Z,40.08
2023-05-12T04:48:26.595Z,40.10
2023-05-12T04:49:26.601Z,40.02
2023-05-12T04:50:26.554Z,40.01
2023-05-12T04:51:26.554Z,40.00
2023-05-12T04:52:25.533Z,40.00
2023-05-12T04:53:25.533Z,40.01
2023-05-12T04:54:25.532Z,40.05
2023-05-12T04:55:25.514Z,40.09
2023-05-12T04:56:25.484Z,40.13
2023-05-12T04:57:25.506Z,40.11
2023-05-12T04:58:25.496Z,40.13
2023-05-12T04:59:25.482Z,40.14
2023-05-12T05:00:26.466Z,40.16
2023-05-12T05:01:26.498Z,40.16
2023-05-12T05:02:25.487Z,40.14
2023-05-12T05:03:26.566Z,40.04
2023-05-12T05:04:25.455Z,40.05
2023-05-12T05:05:25.442Z,40.09
2023-05-12T05:06:25.433Z,40.08
2023-05-12T05:07:26.414Z,40.08
2023-05-12T05:08:26.451Z,40.12
2023-05-12T05:09:26.407Z,40.04
2023-05-12T05:10:25.394Z,39.77
2023-05-12T05:11:26.404Z,39.66
2023-05-12T05:12:25.374Z,39.49
2023-05-12T05:13:26.370Z,39.41
2023-05-12T05:14:26.355Z,39.36
2023-05-12T05:15:25.385Z,39.25
2023-05-12T05:16:26.383Z,39.08
2023-05-12T05:17:26.436Z,38.92
2023-05-12T05:18:25.441Z,38.82
2023-05-12T05:19:35.255Z,38.78
2023-05-12T05:20:29.130Z,38.63
2023-05-12T05:21:26.339Z,38.52
2023-05-12T05:22:26.355Z,38.51
2023-05-12T05:23:25.342Z,38.34
2023-05-12T05:24:26.297Z,38.44
2023-05-12T05:25:26.301Z,38.33
2023-05-12T05:26:25.274Z,38.16
2023-05-12T05:27:26.307Z,38.21
2023-05-12T05:28:26.312Z,38.12
2023-05-12T05:29:26.253Z,38.20
2023-05-12T05:30:26.297Z,38.01
2023-05-12T05:31:25.281Z,38.24
2023-05-12T05:32:26.277Z,37.93
2023-05-12T05:33:26.247Z,37.86
2023-05-12T05:34:26.302Z,37.79
2023-05-12T05:35:26.246Z,38.01
2023-05-12T05:36:26.477Z,37.59
2023-05-12T05:37:26.182Z,37.23
2023-05-12T05:38:25.192Z,37.09
2023-05-12T05:39:26.181Z,37.08
2023-05-12T05:40:26.439Z,37.25
2023-05-12T05:41:25.168Z,37.19
2023-05-12T05:42:26.177Z,37.55
2023-05-12T05:43:25.169Z,37.74
2023-05-12T05:44:25.176Z,37.47
2023-05-12T05:45:27.645Z,38.06
2023-05-12T05:46:26.208Z,38.78
2023-05-12T05:47:25.163Z,38.40
2023-05-12T05:48:25.100Z,38.06
2023-05-12T05:49:25.134Z,38.28
2023-05-12T05:50:26.120Z,38.92
2023-05-12T05:51:25.219Z,38.00
2023-05-12T05:52:26.157Z,38.30
2023-05-12T05:53:26.133Z,38.68
2023-05-12T05:54:25.067Z,38.79
2023-05-12T05:55:26.088Z,38.65
2023-05-12T05:56:25.054Z,38.54
2023-05-12T05:57:26.047Z,40.75
2023-05-12T05:58:25.056Z,40.10
2023-05-12T05:59:26.046Z,37.97
2023-05-12T06:00:25.086Z,38.21
2023-05-12T06:01:26.010Z,37.26
2023-05-12T06:02:26.140Z,36.69
2023-05-12T06:03:26.124Z,37.95
2023-05-12T06:04:25.108Z,36.30
2023-05-12T06:05:26.015Z,35.76
2023-05-12T06:06:26.043Z,36.10
2023-05-12T06:07:25.979Z,35.72
2023-05-12T06:08:25.992Z,35.07
2023-05-12T06:09:25.964Z,34.85
2023-05-12T06:10:25.974Z,35.12
2023-05-12T06:11:24.978Z,35.82
2023-05-12T06:12:25.947Z,35.10
2023-05-12T06:13:25.951Z,35.06
2023-05-12T06:14:25.932Z,34.73
2023-05-12T06:15:24.925Z,34.51
2023-05-12T06:16:24.940Z,35.30
2023-05-12T06:17:25.956Z,35.78
2023-05-12T06:18:25.977Z,34.98
2023-05-12T06:19:24.901Z,34.97
2023-05-12T06:20:25.936Z,35.01
2023-05-12T06:21:24.920Z,35.74
2023-05-12T06:22:24.878Z,34.98
2023-05-12T06:23:24.893Z,34.89
2023-05-12T06:24:25.919Z,34.87
2023-05-12T06:25:25.881Z,34.72
2023-05-12T06:26:25.883Z,34.48
2023-05-12T06:27:24.952Z,34.13
2023-05-12T06:28:24.973Z,34.18
2023-05-12T06:29:24.974Z,34.21
2023-05-12T06:30:25.942Z,34.47
2023-05-12T06:31:26.037Z,34.37
2023-05-12T06:32:25.065Z,35.02
2023-05-12T06:33:25.121Z,34.91
2023-05-12T06:34:25.189Z,34.77
2023-05-12T06:35:25.222Z,34.77
2023-05-12T06:36:26.296Z,35.19
2023-05-12T06:37:25.334Z,35.17
2023-05-12T06:38:26.402Z,34.64
2023-05-12T06:39:25.507Z,35.20
2023-05-12T06:40:25.540Z,35.05
2023-05-12T06:41:25.582Z,34.66
2023-05-12T06:42:26.615Z,34.27
2023-05-12T06:43:25.706Z,34.69
2023-05-12T06:44:25.729Z,34.81
2023-05-12T06:45:26.776Z,34.48
2023-05-12T06:46:26.873Z,34.48
2023-05-12T06:47:26.902Z,34.69
2023-05-12T06:48:26.963Z,34.38
2023-05-12T06:49:26.992Z,34.08
2023-05-12T06:50:27.109Z,33.51
2023-05-12T06:51:27.106Z,33.62
2023-05-12T06:52:27.126Z,34.05
2023-05-12T06:53:26.179Z,34.29
2023-05-12T06:54:27.179Z,34.61
2023-05-12T06:55:27.179Z,34.61
2023-05-12T06:56:27.484Z,34.80
2023-05-12T06:57:26.240Z,35.03
2023-05-12T06:58:27.340Z,34.98
2023-05-12T06:59:26.376Z,35.09
2023-05-12T07:00:27.509Z,35.14
2023-05-12T07:01:26.582Z,35.16
2023-05-12T07:02:26.775Z,35.24
2023-05-12T07:03:27.647Z,35.37
2023-05-12T07:04:27.622Z,35.55
2023-05-12T07:05:27.743Z,35.62
2023-05-12T07:06:27.782Z,35.65
2023-05-12T07:07:27.730Z,35.69
2023-05-12T07:08:27.783Z,35.68
2023-05-12T07:09:26.884Z,35.69
2023-05-12T07:10:27.848Z,35.67
2023-05-12T07:11:27.904Z,35.60
2023-05-12T07:12:28.033Z,35.67
2023-05-12T07:13:26.972Z,35.69
2023-05-12T07:14:27.012Z,35.64
2023-05-12T07:15:28.825Z,35.67
2023-05-12T07:16:28.154Z,35.68
2023-05-12T07:17:28.204Z,35.66
2023-05-12T07:18:27.193Z,35.61
2023-05-12T07:19:28.200Z,35.48
2023-05-12T07:20:28.207Z,35.59
2023-05-12T07:21:28.291Z,35.69
2023-05-12T07:22:28.283Z,35.69
2023-05-12T07:23:27.297Z,35.67
2023-05-12T07:24:28.398Z,35.73
2023-05-12T07:25:28.393Z,35.74
2023-05-12T07:26:27.399Z,35.81
2023-05-12T07:27:28.354Z,35.77
2023-05-12T07:28:28.421Z,35.75
2023-05-12T07:29:28.394Z,35.80
2023-05-12T07:30:28.405Z,35.86
2023-05-12T07:31:28.484Z,35.76
2023-05-12T07:32:28.440Z,35.84
2023-05-12T07:33:27.448Z,35.92
2023-05-12T07:34:27.465Z,35.88
2023-05-12T07:35:28.451Z,35.89
2023-05-12T07:36:28.478Z,35.95
2023-05-12T07:37:28.633Z,35.98
2023-05-12T07:38:28.562Z,35.94
2023-05-12T07:39:27.508Z,35.93
2023-05-12T07:40:27.540Z,35.95
2023-05-12T07:41:27.570Z,35.93
2023-05-12T07:42:27.582Z,35.92
2023-05-12T07:43:27.545Z,35.95
2023-05-12T07:44:28.564Z,35.94
2023-05-12T07:45:27.544Z,35.94
2023-05-12T07:46:28.558Z,35.93
2023-05-12T07:47:27.556Z,35.78
2023-05-12T07:48:27.520Z,35.74
2023-05-12T07:49:27.527Z,35.48
2023-05-12T07:50:28.558Z,35.59
2023-05-12T07:51:28.003Z,35.57
2023-05-12T07:52:28.574Z,35.38
2023-05-12T07:53:28.619Z,35.41
2023-05-12T07:54:27.612Z,35.44
2023-05-12T07:55:28.662Z,35.62
2023-05-12T07:56:27.651Z,35.49
2023-05-12T07:57:28.680Z,35.50
2023-05-12T07:58:27.765Z,35.55
2023-05-12T07:59:27.774Z,35.57
2023-05-12T08:00:28.802Z,35.40
2023-05-12T08:01:28.819Z,35.39
2023-05-12T08:02:29.073Z,35.39
2023-05-12T08:03:28.089Z,35.50
2023-05-12T08:04:27.960Z,35.35
2023-05-12T08:05:28.950Z,35.21
2023-05-12T08:06:28.012Z,35.24
2023-05-12T08:07:28.002Z,35.14
2023-05-12T08:08:29.051Z,35.26
2023-05-12T08:09:29.055Z,35.37
2023-05-12T08:10:29.104Z,35.31
2023-05-12T08:11:29.082Z,35.28
2023-05-12T08:12:28.072Z,35.31
2023-05-12T08:13:29.111Z,35.32
2023-05-12T08:14:28.075Z,35.33
2023-05-12T08:15:29.092Z,35.45
2023-05-12T08:16:29.187Z,35.47
2023-05-12T08:17:29.479Z,35.32
2023-05-12T08:18:29.129Z,35.30
2023-05-12T08:19:29.097Z,35.24
2023-05-12T08:20:29.085Z,35.24
2023-05-12T08:21:28.113Z,35.22
2023-05-12T08:22:29.109Z,35.17
2023-05-12T08:23:29.084Z,35.08
2023-05-12T08:24:28.108Z,35.09
2023-05-12T08:25:28.085Z,35.14
2023-05-12T08:26:28.766Z,35.11
2023-05-12T08:27:29.081Z,35.15
2023-05-12T08:28:28.128Z,35.15
2023-05-12T08:29:28.136Z,35.06
2023-05-12T08:30:28.137Z,34.90
2023-05-12T08:31:29.373Z,34.96
2023-05-12T08:32:28.268Z,34.97
2023-05-12T08:33:28.221Z,35.06
2023-05-12T08:34:29.257Z,35.05
2023-05-12T08:35:29.322Z,35.15
2023-05-12T08:36:28.366Z,35.15
2023-05-12T08:37:29.432Z,35.09
2023-05-12T08:38:29.460Z,35.13
2023-05-12T08:39:28.514Z,35.09
2023-05-12T08:40:28.556Z,35.08
2023-05-12T08:41:29.627Z,35.19
2023-05-12T08:42:30.008Z,35.29
2023-05-12T08:43:29.757Z,34.99
2023-05-12T08:44:29.795Z,35.04
2023-05-12T08:45:29.942Z,34.99
2023-05-12T08:46:28.956Z,34.94
2023-05-12T08:47:30.333Z,34.68
2023-05-12T08:48:29.059Z,34.54
2023-05-12T08:49:29.119Z,35.05
2023-05-12T08:50:29.214Z,35.14
2023-05-12T08:51:29.259Z,35.21
2023-05-12T08:52:29.320Z,35.15
2023-05-12T08:53:29.351Z,35.42
2023-05-12T08:54:30.460Z,35.49
2023-05-12T08:55:33.523Z,35.30
2023-05-12T08:57:29.969Z,35.47
2023-05-12T08:58:40.380Z,35.54
2023-05-12T08:59:30.447Z,35.37
2023-05-12T09:00:29.450Z,35.59
2023-05-12T09:01:29.475Z,35.14
2023-05-12T09:02:40.890Z,35.28
2023-05-12T09:03:30.547Z,35.30
2023-05-12T09:04:30.551Z,35.03
2023-05-12T09:05:29.417Z,35.14
2023-05-12T09:06:29.419Z,35.17
2023-05-12T09:07:29.473Z,35.27
2023-05-12T09:08:30.388Z,35.52
2023-05-12T09:09:30.380Z,35.42
2023-05-12T09:11:29.379Z,35.66
2023-05-12T09:12:31.392Z,35.43
2023-05-12T09:13:30.405Z,35.54
2023-05-12T09:14:30.385Z,35.66
2023-05-12T09:15:29.342Z,35.63
2023-05-12T09:16:29.449Z,35.25
2023-05-12T09:17:30.468Z,35.23
2023-05-12T09:18:30.369Z,35.63
2023-05-12T09:19:30.405Z,35.56
2023-05-12T09:20:31.983Z,35.66
2023-05-12T09:21:30.300Z,35.79
2023-05-12T09:22:29.310Z,35.70
2023-05-12T09:23:30.287Z,35.42
2023-05-12T09:24:30.295Z,35.68
2023-05-12T09:25:29.256Z,35.66
2023-05-12T09:26:30.323Z,35.39
2023-05-12T09:27:30.279Z,35.70
2023-05-12T09:28:29.252Z,35.50
2023-05-12T09:29:32.521Z,35.37
2023-05-12T09:30:29.230Z,35.64
2023-05-12T09:31:29.332Z,35.24
2023-05-12T09:32:29.234Z,35.26
2023-05-12T09:33:29.221Z,35.20
2023-05-12T09:34:29.212Z,34.58
2023-05-12T09:35:30.304Z,34.36
2023-05-12T09:36:29.205Z,34.74
2023-05-12T09:37:30.237Z,34.64
2023-05-12T09:38:29.193Z,35.04
2023-05-12T09:39:30.215Z,35.24
2023-05-12T09:40:30.218Z,35.45
2023-05-12T09:41:30.244Z,35.86
2023-05-12T09:42:30.281Z,35.92
2023-05-12T09:43:29.346Z,36.24
2023-05-12T09:44:30.417Z,36.25
2023-05-12T09:45:30.402Z,36.32
2023-05-12T09:46:29.486Z,36.52
2023-05-12T09:47:30.574Z,36.39
2023-05-12T09:48:30.450Z,36.49
2023-05-12T09:49:30.507Z,36.37
2023-05-12T09:50:40.756Z,36.28
2023-05-12T09:51:30.622Z,36.24
2023-05-12T09:52:29.579Z,36.50
2023-05-12T09:53:30.503Z,36.66
2023-05-12T09:54:29.548Z,36.49
2023-05-12T09:55:30.490Z,36.73
2023-05-12T09:56:30.477Z,36.75
2023-05-12T09:57:30.486Z,36.41
2023-05-12T09:58:30.473Z,36.45
2023-05-12T09:59:30.465Z,36.64
2023-05-12T10:00:46.145Z,36.87
2023-05-12T10:01:30.450Z,36.84
2023-05-12T10:02:30.618Z,36.79
2023-05-12T10:03:30.507Z,36.96
2023-05-12T10:04:29.455Z,36.78
2023-05-12T10:05:29.412Z,36.55
2023-05-12T10:06:30.447Z,36.42
2023-05-12T10:07:30.455Z,36.28
2023-05-12T10:08:29.371Z,36.27
2023-05-12T10:09:30.376Z,36.33
2023-05-12T10:10:30.366Z,36.18
2023-05-12T10:11:29.366Z,36.14
2023-05-12T10:12:29.444Z,35.95
2023-05-12T10:13:30.443Z,36.07
2023-05-12T10:14:29.471Z,36.29
2023-05-12T10:15:30.458Z,36.29
2023-05-12T10:16:30.498Z,36.35
2023-05-12T10:17:29.515Z,36.16
2023-05-12T10:18:29.522Z,36.14
2023-05-12T10:19:30.469Z,36.12
2023-05-12T10:20:30.465Z,35.87
2023-05-12T10:21:30.460Z,35.83
2023-05-12T10:22:29.444Z,36.03
2023-05-12T10:23:30.561Z,35.96
2023-05-12T10:24:29.443Z,36.06
2023-05-12T10:25:29.445Z,36.14
2023-05-12T10:26:29.459Z,36.38
2023-05-12T10:27:30.479Z,36.53
2023-05-12T10:28:29.448Z,36.86
2023-05-12T10:29:29.490Z,36.59
2023-05-12T10:30:30.505Z,36.73
2023-05-12T10:31:30.497Z,36.64
2023-05-12T10:32:30.511Z,36.59
2023-05-12T10:33:30.513Z,36.75
2023-05-12T10:34:29.542Z,36.78
2023-05-12T10:35:30.574Z,36.66
2023-05-12T10:36:29.607Z,36.78
2023-05-12T10:37:30.690Z,37.05
2023-05-12T10:38:30.656Z,36.63
2023-05-12T10:39:29.729Z,36.79
2023-05-12T10:40:29.677Z,36.89
2023-05-12T10:41:29.679Z,36.88
2023-05-12T10:42:30.068Z,36.57
2023-05-12T10:43:29.721Z,36.50
2023-05-12T10:44:30.742Z,36.24
2023-05-12T10:45:29.783Z,36.65
2023-05-12T10:46:31.095Z,36.73
2023-05-12T10:47:31.112Z,36.76
2023-05-12T10:48:29.838Z,36.65
2023-05-12T10:49:29.801Z,36.76
2023-05-12T10:50:30.849Z,37.06
2023-05-12T10:51:29.904Z,36.94
2023-05-12T10:52:29.934Z,37.07
2023-05-12T10:53:45.191Z,37.06
2023-05-12T10:54:30.981Z,37.04
2023-05-12T10:55:30.245Z,36.96
2023-05-12T10:56:31.263Z,37.30
2023-05-12T10:57:30.195Z,37.17
2023-05-12T10:58:31.324Z,37.02
2023-05-12T10:59:30.135Z,37.23
2023-05-12T11:00:31.399Z,36.93
2023-05-12T11:01:31.661Z,37.17
2023-05-12T11:02:30.624Z,37.14
2023-05-12T11:03:30.471Z,37.12
2023-05-12T11:04:30.986Z,37.08
2023-05-12T11:05:30.294Z,37.19
2023-05-12T11:06:31.223Z,37.27
2023-05-12T11:08:30.647Z,37.16
2023-05-12T11:09:31.278Z,37.13
2023-05-12T11:10:31.327Z,37.35
2023-05-12T11:11:31.479Z,37.60
2023-05-12T11:12:30.900Z,37.26
2023-05-12T11:13:29.899Z,37.25
2023-05-12T11:14:29.890Z,37.52
2023-05-12T11:15:29.926Z,37.75
2023-05-12T11:16:30.977Z,37.98
2023-05-12T11:17:31.055Z,37.94
2023-05-12T11:18:31.042Z,37.95
2023-05-12T11:19:30.114Z,38.20
2023-05-12T11:20:31.047Z,38.55
2023-05-12T11:21:30.340Z,38.55
2023-05-12T11:22:30.270Z,38.29
2023-05-12T11:23:30.306Z,38.28
2023-05-12T11:24:31.367Z,37.94
2023-05-12T11:25:31.475Z,38.26
2023-05-12T11:26:31.482Z,38.25
2023-05-12T11:27:31.677Z,38.37
2023-05-12T11:28:31.570Z,38.02
2023-05-12T11:29:31.589Z,38.08
2023-05-12T11:30:31.622Z,38.11
2023-05-12T11:31:30.773Z,37.99
2023-05-12T11:32:31.777Z,37.83
2023-05-12T11:33:30.742Z,37.94
2023-05-12T11:34:30.781Z,38.02
2023-05-12T11:35:31.855Z,37.61
2023-05-12T11:36:31.822Z,37.60
2023-05-12T11:37:31.869Z,37.79
2023-05-12T11:38:30.933Z,37.83
2023-05-12T11:39:31.963Z,37.94
2023-05-12T11:40:30.989Z,38.06
2023-05-12T11:41:30.988Z,38.36
2023-05-12T11:42:32.080Z,38.40
2023-05-12T11:43:32.184Z,38.16
2023-05-12T11:44:32.028Z,38.25
2023-05-12T11:45:32.158Z,38.17
2023-05-12T11:46:31.252Z,38.01
2023-05-12T11:47:32.071Z,38.01
2023-05-12T11:48:32.063Z,37.96
2023-05-12T11:49:32.094Z,38.15
2023-05-12T11:50:32.091Z,38.24
2023-05-12T11:51:32.127Z,38.50
2023-05-12T11:52:32.086Z,38.69
2023-05-12T11:53:31.097Z,38.39
2023-05-12T11:54:32.113Z,38.80
2023-05-12T11:55:32.155Z,38.49
2023-05-12T11:56:32.202Z,38.29
2023-05-12T11:57:32.247Z,38.31
2023-05-12T11:59:31.325Z,38.35
2023-05-12T12:00:31.293Z,38.11
2023-05-12T12:01:31.293Z,37.70
2023-05-12T12:02:31.449Z,37.92
2023-05-12T12:03:31.405Z,37.81
2023-05-12T12:04:33.571Z,37.63
2023-05-12T12:05:32.325Z,37.55
2023-05-12T12:06:31.345Z,37.42
2023-05-12T12:07:31.396Z,37.46
2023-05-12T12:08:31.373Z,37.28
2023-05-12T12:09:32.357Z,37.29
2023-05-12T12:10:31.359Z,37.30
2023-05-12T12:11:32.408Z,37.42
2023-05-12T12:12:31.386Z,37.58
2023-05-12T12:13:32.462Z,37.69
2023-05-12T12:14:32.405Z,37.87
2023-05-12T12:15:32.484Z,38.13
2023-05-12T12:16:32.684Z,38.18
2023-05-12T12:17:32.531Z,38.58
2023-05-12T12:18:32.639Z,39.03
2023-05-12T12:19:31.582Z,38.66
2023-05-12T12:20:31.596Z,38.72
2023-05-12T12:21:32.587Z,38.64
2023-05-12T12:22:32.627Z,38.45
2023-05-12T12:23:43.878Z,38.35
2023-05-12T12:24:32.690Z,38.28
2023-05-12T12:25:31.660Z,38.31
2023-05-12T12:26:31.637Z,38.18
2023-05-12T12:27:31.635Z,38.05
2023-05-12T12:28:31.645Z,37.86
2023-05-12T12:29:32.664Z,37.60
2023-05-12T12:30:32.627Z,37.48
2023-05-12T12:31:31.707Z,37.46
2023-05-12T12:32:31.661Z,37.48
2023-05-12T12:33:32.593Z,37.55
2023-05-12T12:34:32.580Z,37.45
2023-05-12T12:35:31.576Z,37.52
2023-05-12T12:36:32.582Z,37.61
2023-05-12T12:37:31.623Z,37.67
2023-05-12T12:38:31.553Z,37.62
2023-05-12T12:39:32.538Z,37.55
2023-05-12T12:40:32.537Z,37.54
2023-05-12T12:41:32.530Z,37.51
2023-05-12T12:42:32.533Z,37.46
2023-05-12T12:43:31.566Z,37.37
2023-05-12T12:44:32.504Z,37.34
2023-05-12T12:45:32.516Z,37.33
2023-05-12T12:46:32.533Z,37.28
2023-05-12T12:47:31.579Z,37.26
2023-05-12T12:48:32.486Z,37.24
2023-05-12T12:49:31.484Z,37.20
2023-05-12T12:50:31.473Z,37.19
2023-05-12T12:51:44.609Z,37.18
2023-05-12T12:52:32.459Z,37.17
2023-05-12T12:53:31.444Z,37.16
2023-05-12T12:54:31.447Z,37.16
2023-05-12T12:55:32.432Z,37.13
2023-05-12T12:56:32.421Z,37.13
2023-05-12T12:57:31.414Z,37.10